Details From LFBH - La Rochelle Laleu
To LFBD - Bordeaux Merignac
Flight Number -
Tags decoded
Created
Modified
Stats Distance 84 nm / 155 km
Max Altitude 0 ft / 0 m
Waypoints 3
Social Downloads 0
Likes 0
Share VATSIM

Download

Looking for another format? Having issues loading an existing format? Contact us
Advertisement - Login to hide

Notes

Requested: LFBH BMC LFBD

Route

LFBH BMC LFBD

ID Type Via Altitude Latitude Longitude Leg Dist Tot Dist Heading (true) Name
O LFBH APT - 0 ft / 0 m 46.17924˚ -1.19641˚ - 0 nm - La Rochelle Laleu
BMC VOR - 0 ft / 0 m 44.82694˚ -0.72111˚ 83 nm 83 nm 166° / 166° BORDEAUX MERIGNAC VOR-DME
O LFBD APT - 0 ft / 0 m 44.82876˚ -0.71476˚ 0 nm 83 nm 68° / 68° Bordeaux Merignac

Altitude Profile

Advertisement - Login to hide

LFBH

Details ICAO LFBH (LRH)
Name La Rochelle Laleu
Region France
Timezone Europe/Paris (UTC+1.0)
Stats Elevation 74 ft / 23 m (AMSL)
Location 46.179245° -1.196410°
Runways 1
Magnetic Variation 0.301° W

METAR

LFBH 160530Z AUTO 35009KT 9999 BKN048 05/03 Q1017 NOSIG

Decode

TAF

TAF LFBH 152300Z 1600/1624 33008KT CAVOK

Decode

Departure Runways

ID Width Length Bearing (true) Bearing (mag) Surface Threshold Offset Overrun Length
10 148 ft / 45 m 7,383 ft / 2,250 m 92.43° 92.73° Asphalt 1,033 ft / 315 m 0 ft / 0 m
28 148 ft / 45 m 7,383 ft / 2,250 m 272.45° 272.75° Asphalt 1,532 ft / 467 m 0 ft / 0 m

LFBD

Details ICAO LFBD (BOD)
Name Bordeaux Merignac
Region France
Timezone Europe/Paris (UTC+1.0)
Stats Elevation 166 ft / 51 m (AMSL)
Location 44.828762° -0.714755°
Runways 2
Magnetic Variation 0.066° W

METAR

LFBD 160530Z AUTO VRB03KT CAVOK 00/M00 Q1017 TEMPO 0800 BCFG

Decode

TAF

TAF LFBD 152300Z 1600/1706 30005KT CAVOK TEMPO 1600/1609 3000 BR PROB30 TEMPO 1604/1608 0800 BCFG BECMG 1622/1624 3000 MIFG PROB30 TEMPO 1703/1706 0800 FG VV/// TX08/1612Z TN01/1703Z

Decode

Destination Runways

ID Width Length Bearing (true) Bearing (mag) Surface Threshold Offset Overrun Length
05 148 ft / 45 m 10,164 ft / 3,098 m 45.48° 45.55° Asphalt 26 ft / 8 m 1,145 ft / 349 m
11 148 ft / 45 m 7,931 ft / 2,417 m 106.45° 106.52° Asphalt 26 ft / 8 m 1,198 ft / 365 m
23 148 ft / 45 m 10,164 ft / 3,098 m 225.50° 225.57° Asphalt 39 ft / 12 m 1,266 ft / 386 m
29 148 ft / 45 m 7,931 ft / 2,417 m 286.47° 286.54° Asphalt 33 ft / 10 m 1,201 ft / 366 m

Approach Navaids

Runway Type Ident Frequency Range Bearing (true) Bearing (mag) Slope Elevation
23 Localiser BD 110.30 MHz 18 nm / 33 km 225.33° 225.39° - 161 ft / 49 m (AMSL)
23 Glidescope BD 110.30 MHz 10 nm / 19 km 225.49° 225.56° 3.00° 152 ft / 46 m (AMSL)
23 DME BD 110.30 MHz 18 nm / 33 km - - - 207 ft / 63 m (AMSL)
29 Localiser BEI 111.15 MHz 18 nm / 33 km 286.30° 286.36° - 160 ft / 49 m (AMSL)
29 Glidescope BEI 111.15 MHz 10 nm / 19 km 286.46° 286.53° 3.00° 158 ft / 48 m (AMSL)
29 DME BEI 111.15 MHz 18 nm / 33 km - - - 214 ft / 65 m (AMSL)

Popular Alternatives